N3TW MYNN-KAPF
Flight info
| Callsign | N3TW |
|---|---|
| Flight time | 1h 16m |
| Altitude | 30000 |
| Route | FREDY2 NICKO DCT FOWEE DCT FIPES |
| Aircraft | SF50/L-SDGRWY/L |
Departure
| Time | 2026-05-05 13:51 |
|---|---|
| Airport | Lynden Pindling International Airport (MYNN) |
Arrival
| Time | 2026-05-05 15:07 |
|---|---|
| Airport | Naples Municipal Airport (KAPF) |
| Time | Latitude | Longitude | Altitude | Speed | Heading |
|---|---|---|---|---|---|
| 2026-05-05 13:38 | 25.03088 | -77.45563 | 15 ft | 0 kts | 51° |
| 2026-05-05 13:42 | 25.03078 | -77.45577 | 15 ft | 2 kts | 51° |
| 2026-05-05 13:43 | 25.03067 | -77.45592 | 15 ft | 2 kts | 51° |
| 2026-05-05 13:43 | 25.03060 | -77.45601 | 15 ft | 0 kts | 51° |
| 2026-05-05 13:43 | 25.03065 | -77.45602 | 15 ft | 2 kts | 323° |
| 2026-05-05 13:43 | 25.03098 | -77.45631 | 15 ft | 10 kts | 315° |
| 2026-05-05 13:44 | 25.03152 | -77.45687 | 15 ft | 9 kts | 327° |
| 2026-05-05 13:44 | 25.03213 | -77.45700 | 15 ft | 10 kts | 12° |
| 2026-05-05 13:44 | 25.03292 | -77.45671 | 15 ft | 14 kts | 21° |
| 2026-05-05 13:44 | 25.03389 | -77.45627 | 14 ft | 16 kts | 23° |
| 2026-05-05 13:45 | 25.03485 | -77.45554 | 15 ft | 17 kts | 46° |
| 2026-05-05 13:45 | 25.03571 | -77.45524 | 15 ft | 12 kts | 333° |
| 2026-05-05 13:45 | 25.03625 | -77.45575 | 16 ft | 10 kts | 318° |
| 2026-05-05 13:45 | 25.03683 | -77.45637 | 16 ft | 13 kts | 313° |
| 2026-05-05 13:46 | 25.03751 | -77.45717 | 16 ft | 14 kts | 321° |
| 2026-05-05 13:46 | 25.03824 | -77.45797 | 16 ft | 16 kts | 314° |
| 2026-05-05 13:46 | 25.03912 | -77.45893 | 16 ft | 19 kts | 317° |
| 2026-05-05 13:46 | 25.04016 | -77.46003 | 16 ft | 22 kts | 315° |
| 2026-05-05 13:47 | 25.04130 | -77.46134 | 16 ft | 25 kts | 314° |
| 2026-05-05 13:47 | 25.04259 | -77.46276 | 16 ft | 28 kts | 315° |
| 2026-05-05 13:47 | 25.04400 | -77.46435 | 16 ft | 30 kts | 314° |
| 2026-05-05 13:47 | 25.04553 | -77.46604 | 16 ft | 32 kts | 315° |
| 2026-05-05 13:48 | 25.04712 | -77.46780 | 16 ft | 31 kts | 314° |
| 2026-05-05 13:48 | 25.04853 | -77.46938 | 17 ft | 27 kts | 317° |
| 2026-05-05 13:48 | 25.04978 | -77.47074 | 16 ft | 24 kts | 316° |
| 2026-05-05 13:48 | 25.05083 | -77.47195 | 16 ft | 20 kts | 315° |
| 2026-05-05 13:49 | 25.05177 | -77.47296 | 16 ft | 16 kts | 316° |
| 2026-05-05 13:49 | 25.05225 | -77.47389 | 16 ft | 12 kts | 272° |
| 2026-05-05 13:49 | 25.05209 | -77.47461 | 17 ft | 9 kts | 252° |
| 2026-05-05 13:49 | 25.05170 | -77.47521 | 17 ft | 10 kts | 186° |
| 2026-05-05 13:50 | 25.05137 | -77.47512 | 16 ft | 0 kts | 131° |
| 2026-05-05 13:50 | 25.05130 | -77.47505 | 16 ft | 0 kts | 137° |
| 2026-05-05 13:50 | 25.05130 | -77.47504 | 16 ft | 2 kts | 137° |
| 2026-05-05 13:50 | 25.04983 | -77.47343 | 15 ft | 57 kts | 135° |
| 2026-05-05 13:51 | 25.04595 | -77.46906 | 26 ft | 99 kts | 136° |
| 2026-05-05 13:51 | 25.04087 | -77.46371 | 358 ft | 98 kts | 139° |
| 2026-05-05 13:51 | 25.03522 | -77.45835 | 728 ft | 107 kts | 148° |
| 2026-05-05 13:51 | 25.02864 | -77.45596 | 1130 ft | 122 kts | 173° |
| 2026-05-05 13:52 | 25.01966 | -77.45176 | 1261 ft | 159 kts | 142° |
| 2026-05-05 13:52 | 25.01398 | -77.44185 | 2028 ft | 150 kts | 105° |
| 2026-05-05 13:52 | 25.01090 | -77.43036 | 2274 ft | 171 kts | 123° |
| 2026-05-05 13:52 | 25.00113 | -77.42206 | 2455 ft | 189 kts | 162° |
| 2026-05-05 13:53 | 24.98789 | -77.42268 | 2677 ft | 193 kts | 200° |
| 2026-05-05 13:53 | 24.97682 | -77.42985 | 2853 ft | 180 kts | 224° |
| 2026-05-05 13:53 | 24.96886 | -77.43994 | 2939 ft | 172 kts | 229° |
| 2026-05-05 13:53 | 24.96081 | -77.44944 | 3010 ft | 169 kts | 225° |
| 2026-05-05 13:54 | 24.95250 | -77.45846 | 3086 ft | 168 kts | 225° |
| 2026-05-05 13:54 | 24.94417 | -77.46747 | 3153 ft | 168 kts | 225° |
| 2026-05-05 13:54 | 24.93580 | -77.47651 | 3221 ft | 169 kts | 225° |
| 2026-05-05 13:54 | 24.92753 | -77.48547 | 3307 ft | 169 kts | 225° |
| 2026-05-05 13:55 | 24.91903 | -77.49466 | 3377 ft | 169 kts | 225° |
| 2026-05-05 13:55 | 24.91064 | -77.50375 | 3453 ft | 169 kts | 225° |
| 2026-05-05 13:55 | 24.90222 | -77.51284 | 3528 ft | 170 kts | 225° |
| 2026-05-05 13:55 | 24.89382 | -77.52194 | 3604 ft | 169 kts | 225° |
| 2026-05-05 13:56 | 24.88539 | -77.53105 | 3679 ft | 169 kts | 225° |
| 2026-05-05 13:56 | 24.87710 | -77.54004 | 3746 ft | 170 kts | 225° |
| 2026-05-05 13:56 | 24.86863 | -77.54917 | 3820 ft | 170 kts | 225° |
| 2026-05-05 13:56 | 24.86061 | -77.55866 | 3896 ft | 170 kts | 236° |
| 2026-05-05 13:57 | 24.85620 | -77.57063 | 3971 ft | 174 kts | 257° |
| 2026-05-05 13:57 | 24.85608 | -77.58494 | 3998 ft | 202 kts | 280° |
| 2026-05-05 13:57 | 24.85992 | -77.60074 | 4004 ft | 225 kts | 284° |
| 2026-05-05 13:57 | 24.86395 | -77.61825 | 4005 ft | 245 kts | 283° |
| 2026-05-05 13:58 | 24.86814 | -77.63696 | 4000 ft | 257 kts | 283° |
| 2026-05-05 13:58 | 24.87255 | -77.65626 | 4004 ft | 262 kts | 283° |
| 2026-05-05 13:58 | 24.87696 | -77.67550 | 3998 ft | 255 kts | 283° |
| 2026-05-05 13:58 | 24.88130 | -77.69454 | 3993 ft | 258 kts | 283° |
| 2026-05-05 13:59 | 24.88943 | -77.73018 | 5511 ft | 214 kts | 283° |
| 2026-05-05 13:59 | 24.89299 | -77.74587 | 5985 ft | 215 kts | 283° |
| 2026-05-05 14:00 | 24.90087 | -77.78062 | 5999 ft | 249 kts | 283° |
| 2026-05-05 14:00 | 24.90369 | -77.79303 | 5997 ft | 255 kts | 283° |
| 2026-05-05 14:00 | 24.90954 | -77.81876 | 6116 ft | 257 kts | 283° |
| 2026-05-05 14:00 | 24.91369 | -77.83696 | 6882 ft | 232 kts | 283° |
| 2026-05-05 14:01 | 24.91739 | -77.85319 | 7801 ft | 205 kts | 282° |
| 2026-05-05 14:01 | 24.92061 | -77.86740 | 8733 ft | 178 kts | 282° |
| 2026-05-05 14:01 | 24.92355 | -77.88034 | 9279 ft | 175 kts | 282° |
| 2026-05-05 14:01 | 24.92649 | -77.89342 | 9708 ft | 176 kts | 282° |
| 2026-05-05 14:02 | 24.92947 | -77.90653 | 10135 ft | 176 kts | 281° |
| 2026-05-05 14:02 | 24.93240 | -77.91948 | 10536 ft | 177 kts | 282° |
| 2026-05-05 14:02 | 24.93538 | -77.93257 | 10945 ft | 176 kts | 282° |
| 2026-05-05 14:02 | 24.93834 | -77.94571 | 11358 ft | 176 kts | 282° |
| 2026-05-05 14:03 | 24.94036 | -77.95457 | 11644 ft | 176 kts | 281° |
| 2026-05-05 14:03 | 24.94427 | -77.97197 | 12190 ft | 177 kts | 281° |
| 2026-05-05 14:03 | 24.94628 | -77.98088 | 12478 ft | 177 kts | 282° |
| 2026-05-05 14:03 | 24.95022 | -77.99832 | 13043 ft | 177 kts | 281° |
| 2026-05-05 14:04 | 24.95222 | -78.00723 | 13345 ft | 177 kts | 281° |
| 2026-05-05 14:04 | 24.95520 | -78.02042 | 13757 ft | 178 kts | 281° |
| 2026-05-05 14:04 | 24.95812 | -78.03349 | 14143 ft | 178 kts | 281° |
| 2026-05-05 14:04 | 24.96112 | -78.04678 | 14505 ft | 179 kts | 282° |
| 2026-05-05 14:05 | 24.96414 | -78.06015 | 14875 ft | 180 kts | 282° |
| 2026-05-05 14:05 | 24.96716 | -78.07360 | 15229 ft | 181 kts | 282° |
| 2026-05-05 14:05 | 24.97021 | -78.08713 | 15595 ft | 182 kts | 282° |
| 2026-05-05 14:05 | 24.97326 | -78.10071 | 15966 ft | 182 kts | 282° |
| 2026-05-05 14:06 | 24.97628 | -78.11415 | 16318 ft | 183 kts | 282° |
| 2026-05-05 14:06 | 24.97937 | -78.12789 | 16690 ft | 184 kts | 282° |
| 2026-05-05 14:06 | 24.98244 | -78.14150 | 17057 ft | 185 kts | 283° |
| 2026-05-05 14:06 | 24.98554 | -78.15531 | 17430 ft | 185 kts | 283° |
| 2026-05-05 14:07 | 24.98867 | -78.16918 | 17799 ft | 186 kts | 283° |
| 2026-05-05 14:07 | 24.99058 | -78.18322 | 18152 ft | 187 kts | 272° |
| 2026-05-05 14:07 | 24.98996 | -78.19767 | 18494 ft | 188 kts | 268° |
| 2026-05-05 14:07 | 24.98927 | -78.21212 | 18805 ft | 189 kts | 269° |
| 2026-05-05 14:08 | 24.98858 | -78.22662 | 19117 ft | 190 kts | 269° |
| 2026-05-05 14:08 | 24.98787 | -78.24121 | 19433 ft | 191 kts | 269° |
| 2026-05-05 14:08 | 24.98713 | -78.25584 | 19751 ft | 192 kts | 269° |
| 2026-05-05 14:08 | 24.98640 | -78.27041 | 20069 ft | 192 kts | 269° |
| 2026-05-05 14:09 | 24.98564 | -78.28522 | 20387 ft | 193 kts | 269° |
| 2026-05-05 14:09 | 24.98490 | -78.29992 | 20707 ft | 194 kts | 270° |
| 2026-05-05 14:09 | 24.98414 | -78.31484 | 21028 ft | 194 kts | 269° |
| 2026-05-05 14:09 | 24.98338 | -78.32958 | 21383 ft | 193 kts | 270° |
| 2026-05-05 14:10 | 24.98263 | -78.34438 | 21732 ft | 193 kts | 270° |
| 2026-05-05 14:10 | 24.98187 | -78.35921 | 22085 ft | 192 kts | 270° |
| 2026-05-05 14:10 | 24.98112 | -78.37376 | 22437 ft | 191 kts | 270° |
| 2026-05-05 14:10 | 24.98036 | -78.38845 | 22791 ft | 191 kts | 270° |
| 2026-05-05 14:11 | 24.97962 | -78.40293 | 23139 ft | 190 kts | 270° |
| 2026-05-05 14:11 | 24.97886 | -78.41756 | 23494 ft | 190 kts | 270° |
| 2026-05-05 14:11 | 24.97812 | -78.43192 | 23804 ft | 189 kts | 270° |
| 2026-05-05 14:11 | 24.97737 | -78.44640 | 24103 ft | 188 kts | 270° |
| 2026-05-05 14:12 | 24.97663 | -78.46083 | 24395 ft | 188 kts | 270° |
| 2026-05-05 14:12 | 24.97588 | -78.47524 | 24690 ft | 188 kts | 271° |
| 2026-05-05 14:12 | 24.97515 | -78.48957 | 24992 ft | 187 kts | 271° |
| 2026-05-05 14:12 | 24.97441 | -78.50384 | 25292 ft | 187 kts | 271° |
| 2026-05-05 14:13 | 24.97368 | -78.51792 | 25593 ft | 186 kts | 271° |
| 2026-05-05 14:13 | 24.97295 | -78.53213 | 25904 ft | 185 kts | 271° |
| 2026-05-05 14:13 | 24.97221 | -78.54634 | 26211 ft | 185 kts | 271° |
| 2026-05-05 14:13 | 24.97147 | -78.56052 | 26526 ft | 184 kts | 271° |
| 2026-05-05 14:14 | 24.97073 | -78.57468 | 26845 ft | 184 kts | 271° |
| 2026-05-05 14:14 | 24.97001 | -78.58857 | 27154 ft | 183 kts | 271° |
| 2026-05-05 14:14 | 24.96927 | -78.60266 | 27474 ft | 183 kts | 271° |
| 2026-05-05 14:14 | 24.96854 | -78.61663 | 27780 ft | 182 kts | 272° |
| 2026-05-05 14:15 | 24.96780 | -78.63063 | 28088 ft | 182 kts | 272° |
| 2026-05-05 14:15 | 24.96708 | -78.64459 | 28395 ft | 182 kts | 272° |
| 2026-05-05 14:15 | 24.96635 | -78.65830 | 28699 ft | 181 kts | 272° |
| 2026-05-05 14:15 | 24.96562 | -78.67224 | 29008 ft | 181 kts | 272° |
| 2026-05-05 14:16 | 24.96488 | -78.68607 | 29311 ft | 180 kts | 272° |
| 2026-05-05 14:16 | 24.96415 | -78.69970 | 29611 ft | 180 kts | 272° |
| 2026-05-05 14:16 | 24.96340 | -78.71349 | 29909 ft | 179 kts | 272° |
| 2026-05-05 14:16 | 24.96268 | -78.72745 | 30033 ft | 187 kts | 272° |
| 2026-05-05 14:17 | 24.96191 | -78.74203 | 30045 ft | 198 kts | 272° |
| 2026-05-05 14:17 | 24.96107 | -78.75761 | 30044 ft | 208 kts | 272° |
| 2026-05-05 14:17 | 24.96018 | -78.77389 | 30045 ft | 217 kts | 271° |
| 2026-05-05 14:17 | 24.95926 | -78.79085 | 30047 ft | 225 kts | 271° |
| 2026-05-05 14:18 | 24.95832 | -78.80813 | 30046 ft | 231 kts | 271° |
| 2026-05-05 14:18 | 24.95735 | -78.82607 | 30044 ft | 236 kts | 271° |
| 2026-05-05 14:18 | 24.95635 | -78.84433 | 30046 ft | 240 kts | 271° |
| 2026-05-05 14:18 | 24.95535 | -78.86268 | 30048 ft | 244 kts | 271° |
| 2026-05-05 14:19 | 24.95432 | -78.88155 | 30047 ft | 247 kts | 271° |
| 2026-05-05 14:19 | 24.95327 | -78.90068 | 30047 ft | 250 kts | 271° |
| 2026-05-05 14:19 | 24.95223 | -78.91973 | 30051 ft | 253 kts | 271° |
| 2026-05-05 14:19 | 24.95116 | -78.93924 | 30046 ft | 255 kts | 271° |
| 2026-05-05 14:20 | 24.95008 | -78.95898 | 30044 ft | 258 kts | 271° |
| 2026-05-05 14:20 | 24.94901 | -78.97860 | 30045 ft | 260 kts | 271° |
| 2026-05-05 14:20 | 24.94790 | -78.99870 | 30046 ft | 262 kts | 271° |
| 2026-05-05 14:20 | 24.94678 | -79.01887 | 30042 ft | 264 kts | 271° |
| 2026-05-05 14:21 | 24.94565 | -79.03922 | 30048 ft | 266 kts | 271° |
| 2026-05-05 14:21 | 24.94452 | -79.05973 | 30046 ft | 268 kts | 271° |
| 2026-05-05 14:21 | 24.94339 | -79.08002 | 30047 ft | 270 kts | 271° |
| 2026-05-05 14:21 | 24.94223 | -79.10072 | 30047 ft | 271 kts | 271° |
| 2026-05-05 14:22 | 24.94107 | -79.12154 | 30048 ft | 273 kts | 271° |
| 2026-05-05 14:22 | 24.93989 | -79.14251 | 30044 ft | 274 kts | 271° |
| 2026-05-05 14:22 | 24.93871 | -79.16354 | 30044 ft | 275 kts | 271° |
| 2026-05-05 14:22 | 24.93880 | -79.18462 | 30042 ft | 273 kts | 278° |
| 2026-05-05 14:23 | 24.94184 | -79.20526 | 30039 ft | 272 kts | 286° |
| 2026-05-05 14:23 | 24.94748 | -79.22483 | 30040 ft | 271 kts | 291° |
| 2026-05-05 14:23 | 24.95385 | -79.24445 | 30044 ft | 271 kts | 291° |
| 2026-05-05 14:23 | 24.96001 | -79.26394 | 30044 ft | 271 kts | 291° |
| 2026-05-05 14:24 | 24.96628 | -79.28361 | 30046 ft | 271 kts | 291° |
| 2026-05-05 14:24 | 24.97259 | -79.30326 | 30043 ft | 271 kts | 291° |
| 2026-05-05 14:24 | 24.97886 | -79.32285 | 30048 ft | 270 kts | 291° |
| 2026-05-05 14:24 | 24.98502 | -79.34213 | 30045 ft | 270 kts | 291° |
| 2026-05-05 14:25 | 24.99130 | -79.36179 | 30043 ft | 270 kts | 291° |
| 2026-05-05 14:25 | 24.99755 | -79.38138 | 30045 ft | 270 kts | 291° |
| 2026-05-05 14:25 | 25.00372 | -79.40070 | 30041 ft | 270 kts | 291° |
| 2026-05-05 14:25 | 25.00999 | -79.42035 | 30048 ft | 270 kts | 291° |
| 2026-05-05 14:26 | 25.01616 | -79.43970 | 30042 ft | 270 kts | 291° |
| 2026-05-05 14:26 | 25.02239 | -79.45924 | 30042 ft | 270 kts | 291° |
| 2026-05-05 14:26 | 25.02859 | -79.47873 | 30046 ft | 270 kts | 291° |
| 2026-05-05 14:26 | 25.03481 | -79.49827 | 30047 ft | 269 kts | 291° |
| 2026-05-05 14:27 | 25.04102 | -79.51778 | 30045 ft | 269 kts | 291° |
| 2026-05-05 14:27 | 25.04722 | -79.53727 | 30045 ft | 269 kts | 291° |
| 2026-05-05 14:27 | 25.05341 | -79.55673 | 30046 ft | 269 kts | 291° |
| 2026-05-05 14:27 | 25.05960 | -79.57622 | 30047 ft | 269 kts | 291° |
| 2026-05-05 14:28 | 25.06579 | -79.59570 | 30048 ft | 269 kts | 291° |
| 2026-05-05 14:28 | 25.07198 | -79.61518 | 30049 ft | 269 kts | 291° |
| 2026-05-05 14:28 | 25.07816 | -79.63467 | 30048 ft | 269 kts | 291° |
| 2026-05-05 14:28 | 25.08434 | -79.65414 | 30049 ft | 269 kts | 291° |
| 2026-05-05 14:29 | 25.09053 | -79.67364 | 30047 ft | 269 kts | 291° |
| 2026-05-05 14:29 | 25.09671 | -79.69314 | 30047 ft | 269 kts | 291° |
| 2026-05-05 14:29 | 25.10288 | -79.71263 | 30051 ft | 269 kts | 291° |
| 2026-05-05 14:29 | 25.10905 | -79.73211 | 30047 ft | 269 kts | 291° |
| 2026-05-05 14:30 | 25.11521 | -79.75157 | 30047 ft | 269 kts | 291° |
| 2026-05-05 14:30 | 25.12137 | -79.77104 | 30049 ft | 269 kts | 291° |
| 2026-05-05 14:30 | 25.12753 | -79.79053 | 30048 ft | 269 kts | 291° |
| 2026-05-05 14:30 | 25.13368 | -79.81000 | 30047 ft | 269 kts | 291° |
| 2026-05-05 14:31 | 25.13983 | -79.82949 | 30047 ft | 269 kts | 291° |
| 2026-05-05 14:31 | 25.14597 | -79.84894 | 30050 ft | 268 kts | 291° |
| 2026-05-05 14:31 | 25.15211 | -79.86840 | 30047 ft | 268 kts | 291° |
| 2026-05-05 14:31 | 25.15825 | -79.88786 | 30050 ft | 268 kts | 291° |
| 2026-05-05 14:32 | 25.16437 | -79.90729 | 30051 ft | 268 kts | 291° |
| 2026-05-05 14:32 | 25.17049 | -79.92675 | 30050 ft | 268 kts | 291° |
| 2026-05-05 14:32 | 25.17653 | -79.94596 | 30051 ft | 268 kts | 291° |
| 2026-05-05 14:32 | 25.18273 | -79.96567 | 30052 ft | 268 kts | 291° |
| 2026-05-05 14:33 | 25.18877 | -79.98487 | 30051 ft | 268 kts | 291° |
| 2026-05-05 14:33 | 25.19486 | -80.00428 | 30047 ft | 268 kts | 291° |
| 2026-05-05 14:33 | 25.20097 | -80.02374 | 30048 ft | 268 kts | 291° |
| 2026-05-05 14:33 | 25.20708 | -80.04321 | 30050 ft | 268 kts | 291° |
| 2026-05-05 14:34 | 25.21319 | -80.06268 | 30051 ft | 268 kts | 291° |
| 2026-05-05 14:34 | 25.21929 | -80.08213 | 30047 ft | 268 kts | 291° |
| 2026-05-05 14:34 | 25.22538 | -80.10159 | 30050 ft | 268 kts | 291° |
| 2026-05-05 14:34 | 25.23147 | -80.12104 | 30046 ft | 268 kts | 291° |
| 2026-05-05 14:35 | 25.23757 | -80.14051 | 30046 ft | 268 kts | 291° |
| 2026-05-05 14:35 | 25.24366 | -80.15997 | 30049 ft | 269 kts | 291° |
| 2026-05-05 14:35 | 25.24975 | -80.17946 | 30048 ft | 268 kts | 292° |
| 2026-05-05 14:35 | 25.25584 | -80.19895 | 30049 ft | 268 kts | 292° |
| 2026-05-05 14:36 | 25.26193 | -80.21845 | 30050 ft | 268 kts | 292° |
| 2026-05-05 14:36 | 25.26802 | -80.23792 | 30052 ft | 268 kts | 292° |
| 2026-05-05 14:36 | 25.27412 | -80.25745 | 30049 ft | 268 kts | 292° |
| 2026-05-05 14:36 | 25.28020 | -80.27695 | 30049 ft | 268 kts | 292° |
| 2026-05-05 14:37 | 25.28627 | -80.29641 | 30019 ft | 266 kts | 292° |
| 2026-05-05 14:37 | 25.29222 | -80.31553 | 29747 ft | 260 kts | 292° |
| 2026-05-05 14:37 | 25.29802 | -80.33415 | 29414 ft | 253 kts | 292° |
| 2026-05-05 14:37 | 25.30369 | -80.35236 | 29084 ft | 249 kts | 292° |
| 2026-05-05 14:38 | 25.30933 | -80.37042 | 28761 ft | 248 kts | 292° |
| 2026-05-05 14:38 | 25.31495 | -80.38850 | 28429 ft | 249 kts | 292° |
| 2026-05-05 14:38 | 25.32061 | -80.40668 | 28100 ft | 251 kts | 291° |
| 2026-05-05 14:38 | 25.32629 | -80.42498 | 27767 ft | 252 kts | 291° |
| 2026-05-05 14:39 | 25.33200 | -80.44334 | 27437 ft | 253 kts | 291° |
| 2026-05-05 14:39 | 25.33766 | -80.46158 | 27106 ft | 254 kts | 291° |
| 2026-05-05 14:39 | 25.34341 | -80.48010 | 26767 ft | 255 kts | 291° |
| 2026-05-05 14:39 | 25.34918 | -80.49869 | 26431 ft | 256 kts | 291° |
| 2026-05-05 14:40 | 25.35495 | -80.51733 | 26094 ft | 257 kts | 291° |
| 2026-05-05 14:40 | 25.36076 | -80.53606 | 25750 ft | 258 kts | 291° |
| 2026-05-05 14:40 | 25.36657 | -80.55484 | 25411 ft | 259 kts | 290° |
| 2026-05-05 14:40 | 25.37242 | -80.57371 | 25072 ft | 260 kts | 290° |
| 2026-05-05 14:41 | 25.37827 | -80.59264 | 24728 ft | 260 kts | 290° |
| 2026-05-05 14:41 | 25.38415 | -80.61163 | 24385 ft | 261 kts | 290° |
| 2026-05-05 14:41 | 25.39003 | -80.63068 | 24039 ft | 262 kts | 290° |
| 2026-05-05 14:41 | 25.39594 | -80.64986 | 23692 ft | 263 kts | 290° |
| 2026-05-05 14:42 | 25.40191 | -80.66918 | 23306 ft | 264 kts | 290° |
| 2026-05-05 14:42 | 25.40783 | -80.68838 | 22951 ft | 264 kts | 290° |
| 2026-05-05 14:42 | 25.41377 | -80.70764 | 22604 ft | 265 kts | 290° |
| 2026-05-05 14:42 | 25.41973 | -80.72698 | 22251 ft | 266 kts | 289° |
| 2026-05-05 14:43 | 25.42570 | -80.74639 | 21897 ft | 267 kts | 290° |
| 2026-05-05 14:43 | 25.43170 | -80.76588 | 21546 ft | 268 kts | 290° |
| 2026-05-05 14:43 | 25.43772 | -80.78544 | 21190 ft | 269 kts | 290° |
| 2026-05-05 14:43 | 25.44376 | -80.80508 | 20839 ft | 270 kts | 289° |
| 2026-05-05 14:44 | 25.44982 | -80.82479 | 20476 ft | 271 kts | 289° |
| 2026-05-05 14:44 | 25.45588 | -80.84454 | 20122 ft | 272 kts | 289° |
| 2026-05-05 14:44 | 25.46197 | -80.86439 | 19765 ft | 273 kts | 289° |
| 2026-05-05 14:44 | 25.46799 | -80.88399 | 19411 ft | 273 kts | 289° |
| 2026-05-05 14:45 | 25.47412 | -80.90397 | 19049 ft | 274 kts | 290° |
| 2026-05-05 14:45 | 25.48026 | -80.92400 | 18686 ft | 275 kts | 289° |
| 2026-05-05 14:45 | 25.48642 | -80.94409 | 18322 ft | 276 kts | 290° |
| 2026-05-05 14:45 | 25.49261 | -80.96429 | 17865 ft | 278 kts | 289° |
| 2026-05-05 14:46 | 25.49882 | -80.98458 | 17486 ft | 279 kts | 289° |
| 2026-05-05 14:46 | 25.50507 | -81.00499 | 17118 ft | 281 kts | 289° |
| 2026-05-05 14:46 | 25.51136 | -81.02555 | 16746 ft | 283 kts | 289° |
| 2026-05-05 14:46 | 25.51767 | -81.04624 | 16370 ft | 285 kts | 289° |
| 2026-05-05 14:47 | 25.52403 | -81.06705 | 16001 ft | 286 kts | 289° |
| 2026-05-05 14:47 | 25.53041 | -81.08795 | 15629 ft | 287 kts | 289° |
| 2026-05-05 14:47 | 25.53682 | -81.10895 | 15244 ft | 289 kts | 288° |
| 2026-05-05 14:47 | 25.54324 | -81.13003 | 14865 ft | 289 kts | 288° |
| 2026-05-05 14:48 | 25.54969 | -81.15113 | 14476 ft | 289 kts | 288° |
| 2026-05-05 14:48 | 25.55609 | -81.17219 | 14102 ft | 289 kts | 288° |
| 2026-05-05 14:48 | 25.56251 | -81.19332 | 13709 ft | 288 kts | 288° |
| 2026-05-05 14:48 | 25.56889 | -81.21432 | 13317 ft | 287 kts | 288° |
| 2026-05-05 14:49 | 25.57525 | -81.23520 | 12941 ft | 286 kts | 288° |
| 2026-05-05 14:49 | 25.58152 | -81.25582 | 12570 ft | 286 kts | 288° |
| 2026-05-05 14:49 | 25.58783 | -81.27665 | 12198 ft | 285 kts | 288° |
| 2026-05-05 14:49 | 25.59414 | -81.29742 | 11824 ft | 284 kts | 288° |
| 2026-05-05 14:50 | 25.60044 | -81.31817 | 11404 ft | 284 kts | 288° |
| 2026-05-05 14:50 | 25.60669 | -81.33884 | 11029 ft | 283 kts | 288° |
| 2026-05-05 14:50 | 25.61295 | -81.35947 | 10655 ft | 282 kts | 288° |
| 2026-05-05 14:50 | 25.61918 | -81.38006 | 10292 ft | 281 kts | 288° |
| 2026-05-05 14:51 | 25.62539 | -81.40061 | 9919 ft | 281 kts | 288° |
| 2026-05-05 14:51 | 25.63159 | -81.42111 | 9526 ft | 279 kts | 288° |
| 2026-05-05 14:51 | 25.63575 | -81.43487 | 9276 ft | 279 kts | 288° |
| 2026-05-05 14:51 | 25.64386 | -81.46175 | 8803 ft | 277 kts | 288° |
| 2026-05-05 14:52 | 25.64792 | -81.47513 | 8550 ft | 276 kts | 288° |
| 2026-05-05 14:52 | 25.65676 | -81.49380 | 8181 ft | 277 kts | 308° |
| 2026-05-05 14:52 | 25.67196 | -81.50672 | 7855 ft | 278 kts | 329° |
| 2026-05-05 14:52 | 25.68928 | -81.51621 | 7576 ft | 277 kts | 333° |
| 2026-05-05 14:53 | 25.70680 | -81.52514 | 7319 ft | 277 kts | 333° |
| 2026-05-05 14:53 | 25.72431 | -81.53400 | 7068 ft | 276 kts | 333° |
| 2026-05-05 14:53 | 25.74178 | -81.54284 | 6815 ft | 275 kts | 333° |
| 2026-05-05 14:53 | 25.75915 | -81.55166 | 6570 ft | 274 kts | 334° |
| 2026-05-05 14:54 | 25.77642 | -81.56046 | 6320 ft | 273 kts | 333° |
| 2026-05-05 14:54 | 25.79365 | -81.56927 | 6056 ft | 272 kts | 334° |
| 2026-05-05 14:54 | 25.81057 | -81.57796 | 6008 ft | 270 kts | 334° |
| 2026-05-05 14:54 | 25.82767 | -81.58677 | 6012 ft | 271 kts | 334° |
| 2026-05-05 14:55 | 25.84486 | -81.59561 | 6015 ft | 271 kts | 334° |
| 2026-05-05 14:55 | 25.86202 | -81.60446 | 6012 ft | 272 kts | 333° |
| 2026-05-05 14:55 | 25.87915 | -81.61332 | 6014 ft | 272 kts | 333° |
| 2026-05-05 14:55 | 25.89630 | -81.62221 | 6017 ft | 272 kts | 333° |
| 2026-05-05 14:56 | 25.91343 | -81.63110 | 6007 ft | 272 kts | 333° |
| 2026-05-05 14:56 | 25.93057 | -81.63998 | 6000 ft | 272 kts | 334° |
| 2026-05-05 14:56 | 25.94769 | -81.64885 | 5999 ft | 272 kts | 333° |
| 2026-05-05 14:56 | 25.96483 | -81.65770 | 6008 ft | 272 kts | 333° |
| 2026-05-05 14:57 | 25.98195 | -81.66669 | 6000 ft | 271 kts | 331° |
| 2026-05-05 14:57 | 25.99848 | -81.67646 | 5992 ft | 269 kts | 330° |
| 2026-05-05 14:57 | 26.01537 | -81.68548 | 5987 ft | 270 kts | 333° |
| 2026-05-05 14:57 | 26.03245 | -81.69436 | 6005 ft | 271 kts | 334° |
| 2026-05-05 14:58 | 26.04955 | -81.70325 | 5995 ft | 271 kts | 334° |
| 2026-05-05 14:58 | 26.06667 | -81.71215 | 6005 ft | 272 kts | 334° |
| 2026-05-05 14:58 | 26.08379 | -81.72101 | 6007 ft | 271 kts | 334° |
| 2026-05-05 14:58 | 26.10089 | -81.72988 | 6003 ft | 272 kts | 333° |
| 2026-05-05 14:59 | 26.11806 | -81.73877 | 6006 ft | 272 kts | 333° |
| 2026-05-05 14:59 | 26.13523 | -81.74768 | 5996 ft | 272 kts | 334° |
| 2026-05-05 14:59 | 26.15241 | -81.75659 | 5994 ft | 271 kts | 333° |
| 2026-05-05 14:59 | 26.16915 | -81.76524 | 5616 ft | 249 kts | 334° |
| 2026-05-05 15:00 | 26.18476 | -81.77339 | 4190 ft | 245 kts | 334° |
| 2026-05-05 15:00 | 26.19491 | -81.77886 | 3340 ft | 248 kts | 334° |
| 2026-05-05 15:00 | 26.21579 | -81.79057 | 3003 ft | 254 kts | 334° |
| 2026-05-05 15:00 | 26.23100 | -81.79925 | 2997 ft | 236 kts | 334° |
| 2026-05-05 15:01 | 26.24534 | -81.80744 | 3004 ft | 229 kts | 333° |
| 2026-05-05 15:01 | 26.25925 | -81.81538 | 3003 ft | 220 kts | 334° |
| 2026-05-05 15:01 | 26.27266 | -81.82308 | 2995 ft | 213 kts | 334° |
| 2026-05-05 15:01 | 26.28403 | -81.83343 | 2985 ft | 215 kts | 306° |
| 2026-05-05 15:02 | 26.28842 | -81.84912 | 2991 ft | 216 kts | 271° |
| 2026-05-05 15:02 | 26.28396 | -81.86484 | 2991 ft | 215 kts | 234° |
| 2026-05-05 15:02 | 26.27226 | -81.87475 | 2991 ft | 214 kts | 199° |
| 2026-05-05 15:02 | 26.25766 | -81.87606 | 2994 ft | 212 kts | 175° |
| 2026-05-05 15:03 | 26.24313 | -81.87454 | 2887 ft | 201 kts | 173° |
| 2026-05-05 15:03 | 26.22926 | -81.87315 | 1880 ft | 209 kts | 174° |
| 2026-05-05 15:03 | 26.21464 | -81.87199 | 1504 ft | 203 kts | 174° |
| 2026-05-05 15:03 | 26.20056 | -81.87091 | 1493 ft | 204 kts | 174° |
| 2026-05-05 15:04 | 26.18624 | -81.86995 | 1494 ft | 208 kts | 178° |
| 2026-05-05 15:04 | 26.17195 | -81.87126 | 1496 ft | 209 kts | 185° |
| 2026-05-05 15:04 | 26.15731 | -81.87284 | 1502 ft | 209 kts | 181° |
| 2026-05-05 15:04 | 26.14300 | -81.87349 | 1500 ft | 207 kts | 180° |
| 2026-05-05 15:05 | 26.11720 | -81.86299 | 1496 ft | 203 kts | 133° |
| 2026-05-05 15:05 | 26.10980 | -81.85050 | 1069 ft | 189 kts | 109° |
| 2026-05-05 15:05 | 26.10820 | -81.83607 | 836 ft | 186 kts | 86° |
| 2026-05-05 15:06 | 26.11169 | -81.82206 | 836 ft | 193 kts | 64° |
| 2026-05-05 15:06 | 26.12006 | -81.81040 | 834 ft | 196 kts | 44° |
| 2026-05-05 15:06 | 26.12996 | -81.80038 | 796 ft | 177 kts | 44° |
| 2026-05-05 15:06 | 26.13757 | -81.79193 | 476 ft | 139 kts | 49° |
| 2026-05-05 15:07 | 26.14333 | -81.78577 | 165 ft | 100 kts | 46° |
| 2026-05-05 15:07 | 26.14781 | -81.78084 | 50 ft | 79 kts | 48° |
| 2026-05-05 15:07 | 26.15099 | -81.77736 | 10 ft | 52 kts | 47° |
| 2026-05-05 15:07 | 26.15266 | -81.77551 | 11 ft | 17 kts | 44° |
| 2026-05-05 15:08 | 26.15267 | -81.77471 | 10 ft | 12 kts | 123° |
| 2026-05-05 15:08 | 26.15256 | -81.77397 | 8 ft | 9 kts | 54° |
| 2026-05-05 15:08 | 26.15290 | -81.77356 | 9 ft | 6 kts | 44° |
| 2026-05-05 15:08 | 26.15309 | -81.77273 | 9 ft | 13 kts | 89° |
| 2026-05-05 15:09 | 26.15315 | -81.77180 | 11 ft | 11 kts | 66° |
| 2026-05-05 15:09 | 26.15350 | -81.77106 | 12 ft | 11 kts | 62° |
| 2026-05-05 15:09 | 26.15368 | -81.77086 | 11 ft | 0 kts | 22° |